Time;durP1;ratioP1;P1;durP2;ratioP2;P2;SDS_P1;SDS_P2;PMS_P1;PMS_P2;Temp;Humidity;BMP_temperature;BMP_pressure;BME280_temperature;BME280_humidity;BME280_pressure;Samples;Min_cycle;Max_cycle;Signal;HPM_P1;HPM_P2
2022/06/17 00:00:45;;;;;;;2.42;2.08;;;;;;;15.28;84.61;99607.03;5115270;28;20047;-80
2022/06/17 00:03:11;;;;;;;2.38;1.88;;;;;;;15.16;84.65;99594.97;5114938;28;20051;-80
2022/06/17 00:05:38;;;;;;;3.25;1.98;;;;;;;15.14;84.61;99614.34;5114654;27;20054;-80
2022/06/17 00:08:07;;;;;;;3.70;1.80;;;;;;;14.98;85.11;99614.66;5115039;28;20055;-79
2022/06/17 00:10:33;;;;;;;3.80;2.08;;;;;;;14.92;86.12;99612.75;5115082;28;20441;-80
2022/06/17 00:13:00;;;;;;;3.35;1.88;;;;;;;14.85;86.20;99610.00;5113876;28;20048;-80
2022/06/17 00:15:26;;;;;;;3.63;2.05;;;;;;;14.84;85.37;99603.69;5115005;28;20047;-79
2022/06/17 00:17:53;;;;;;;5.88;2.38;;;;;;;15.00;85.36;99618.06;5115072;28;20400;-80
2022/06/17 00:20:23;;;;;;;8.18;2.30;;;;;;;14.88;85.52;99612.31;5115181;27;20075;-80
2022/06/17 00:22:50;;;;;;;2.63;1.95;;;;;;;14.65;85.65;99598.94;5114929;28;20044;-80
2022/06/17 00:25:25;;;;;;;6.57;2.53;;;;;;;14.65;88.34;99621.66;5115090;28;20051;-80
2022/06/17 00:27:52;;;;;;;8.07;2.70;;;;;;;14.51;89.42;99617.97;5114884;28;20055;-79
2022/06/17 00:30:21;;;;;;;3.33;1.60;;;;;;;14.65;89.19;99623.56;5114584;28;20048;-80
2022/06/17 00:32:48;;;;;;;2.47;2.08;;;;;;;14.55;91.55;99625.75;5114709;28;20126;-79
2022/06/17 00:35:15;;;;;;;3.00;2.08;;;;;;;14.50;89.87;99620.91;5113192;28;20047;-79
2022/06/17 00:37:41;;;;;;;2.55;1.75;;;;;;;14.63;90.61;99634.69;5114535;28;20059;-80
2022/06/17 00:40:16;;;;;;;3.28;1.70;;;;;;;14.52;90.17;99618.78;5114707;28;20051;-79
2022/06/17 00:42:45;;;;;;;3.28;1.92;;;;;;;14.55;89.06;99625.75;5114482;28;20054;-79
2022/06/17 00:45:23;;;;;;;2.45;1.67;;;;;;;14.52;87.47;99627.84;5114564;28;20055;-79
2022/06/17 00:47:56;;;;;;;2.20;1.80;;;;;;;14.64;85.35;99646.47;5114082;27;20047;-79
2022/06/17 00:50:28;;;;;;;4.07;1.95;;;;;;;14.54;86.33;99644.06;5114421;28;20047;-80
2022/06/17 00:53:01;;;;;;;2.75;2.05;;;;;;;14.35;88.74;99645.59;5114405;28;20054;-79
2022/06/17 00:55:34;;;;;;;3.58;1.90;;;;;;;14.18;90.06;99657.84;5114244;28;20056;-79
2022/06/17 00:58:11;;;;;;;2.30;1.98;;;;;;;14.31;88.78;99647.03;5114753;28;20055;-79
2022/06/17 01:00:38;;;;;;;3.10;1.73;;;;;;;14.34;88.08;99641.16;5114382;28;20051;-79
2022/06/17 01:03:10;;;;;;;2.00;1.80;;;;;;;14.19;89.46;99627.59;5111825;28;20047;-79
2022/06/17 01:05:40;;;;;;;2.58;2.10;;;;;;;14.12;90.16;99649.41;5112309;27;20055;-80
2022/06/17 01:08:14;;;;;;;4.60;1.73;;;;;;;14.15;90.24;99632.59;5113740;27;20054;-79
2022/06/17 01:10:44;;;;;;;4.28;2.03;;;;;;;13.96;90.54;99620.44;5114117;28;20410;-79
2022/06/17 01:13:13;;;;;;;5.72;1.90;;;;;;;14.08;90.33;99630.88;5113966;28;20051;-79
2022/06/17 01:15:42;;;;;;;7.72;1.88;;;;;;;14.11;90.63;99642.25;5114120;28;20684;-79
2022/06/17 01:18:11;;;;;;;2.63;1.70;;;;;;;14.18;89.82;99633.25;5112768;28;20417;-79
2022/06/17 01:20:40;;;;;;;2.17;1.58;;;;;;;14.19;88.45;99624.00;5113815;28;20055;-79
2022/06/17 01:23:11;;;;;;;2.33;1.83;;;;;;;14.05;90.24;99623.06;5113720;28;20090;-79
2022/06/17 01:25:41;;;;;;;2.00;1.60;;;;;;;14.03;89.48;99609.59;5114011;28;20062;-79
2022/06/17 01:28:10;;;;;;;2.35;1.60;;;;;;;14.02;89.24;99618.81;5114022;28;20055;-79
2022/06/17 01:30:39;;;;;;;3.55;1.60;;;;;;;13.97;88.17;99604.88;5113584;28;20475;-79
2022/06/17 01:33:14;;;;;;;2.78;1.67;;;;;;;14.15;88.50;99609.88;5112610;27;20520;-79
2022/06/17 01:35:45;;;;;;;1.70;1.60;;;;;;;14.06;89.27;99613.78;5113928;28;20047;-79
2022/06/17 01:38:13;;;;;;;4.13;1.70;;;;;;;13.95;89.56;99616.00;5114054;28;20048;-79
2022/06/17 01:40:40;;;;;;;3.10;1.52;;;;;;;13.81;90.89;99616.94;5113578;28;20043;-79
2022/06/17 01:43:09;;;;;;;2.50;1.50;;;;;;;13.86;90.72;99613.63;5113495;28;20060;-79
2022/06/17 01:45:40;;;;;;;1.90;1.50;;;;;;;13.81;89.88;99614.19;5112391;28;20051;-79
2022/06/17 01:48:10;;;;;;;3.25;1.40;;;;;;;13.78;89.41;99620.88;5113741;28;20044;-79
2022/06/17 01:50:39;;;;;;;1.70;1.60;;;;;;;13.58;91.23;99628.06;5113595;28;20044;-79
2022/06/17 01:53:10;;;;;;;4.63;1.70;;;;;;;13.38;93.21;99617.75;5113220;28;20070;-79
2022/06/17 01:55:42;;;;;;;1.80;1.50;;;;;;;13.38;94.62;99627.81;5113558;28;20047;-79
2022/06/17 01:58:13;;;;;;;3.70;1.58;;;;;;;13.24;95.90;99615.84;5113653;28;20059;-79
2022/06/17 02:00:41;;;;;;;2.28;1.42;;;;;;;13.50;96.29;99625.41;5112250;28;20043;-79
2022/06/17 02:03:28;;;;;;;2.83;1.70;;;;;;;13.47;96.03;99621.19;5113226;28;20662;-78
2022/06/17 02:06:02;;;;;;;2.25;1.65;;;;;;;13.18;97.07;99622.91;5113540;28;20400;-79
2022/06/17 02:08:29;;;;;;;1.65;1.55;;;;;;;13.34;95.68;99588.25;5113201;28;20055;-79
2022/06/17 02:10:57;;;;;;;2.20;1.63;;;;;;;13.42;93.39;99618.19;5113360;28;20398;-79
2022/06/17 02:13:23;;;;;;;3.65;1.77;;;;;;;13.42;93.98;99627.22;5111864;28;21554;-79
2022/06/17 02:15:52;;;;;;;3.03;1.98;;;;;;;13.36;96.28;99636.19;5117379;28;20051;-79
2022/06/17 02:18:20;;;;;;;2.88;1.70;;;;;;;13.32;97.91;99636.72;5117230;28;20483;-79
2022/06/17 02:20:50;;;;;;;2.20;1.55;;;;;;;13.14;98.23;99620.75;5117529;28;20048;-79
2022/06/17 02:23:17;;;;;;;;;;;;;;;13.18;98.09;99633.84;5117477;28;20082;-79
2022/06/17 02:25:46;;;;;;;5.72;1.85;;;;;;;13.28;96.38;99622.63;5117368;28;19924;-79
2022/06/17 02:28:16;;;;;;;3.05;2.15;;;;;;;13.15;96.45;99617.84;5116173;27;20422;-79
2022/06/17 02:30:44;;;;;;;1.75;1.60;;;;;;;13.21;96.04;99621.69;5117145;28;20044;-79
2022/06/17 02:33:12;;;;;;;4.50;1.80;;;;;;;13.18;97.48;99625.63;5117282;28;20056;-79
2022/06/17 02:35:44;;;;;;;1.90;1.55;;;;;;;12.96;99.64;99616.53;5117080;28;20541;-79
2022/06/17 02:38:15;;;;;;;2.67;1.98;;;;;;;12.86;100.00;99624.19;5116997;28;20055;-79
2022/06/17 02:40:45;;;;;;;1.90;1.70;;;;;;;12.87;100.00;99634.03;5116690;28;20402;-79
2022/06/17 02:43:12;;;;;;;;;;;;;;;12.99;98.74;99640.75;5115919;27;20051;-79
2022/06/17 02:45:46;;;;;;;4.43;2.00;;;;;;;13.05;97.44;99634.53;5117198;28;19919;-79
2022/06/17 02:48:20;;;;;;;3.78;1.88;;;;;;;12.97;98.06;99642.78;5116908;28;20058;-79
2022/06/17 02:50:46;;;;;;;4.35;1.88;;;;;;;12.89;98.52;99640.19;5116792;28;20559;-79
2022/06/17 02:53:14;;;;;;;2.67;1.60;;;;;;;12.67;99.32;99639.22;5116575;28;20059;-79
2022/06/17 02:55:43;;;;;;;5.38;1.95;;;;;;;12.49;100.00;99636.84;5116864;28;20086;-79
2022/06/17 02:58:18;;;;;;;4.03;2.47;;;;;;;12.49;100.00;99631.38;5115203;28;20047;-79
2022/06/17 03:00:46;;;;;;;5.80;1.75;;;;;;;12.60;100.00;99644.59;5115555;28;20090;-79
2022/06/17 03:03:16;;;;;;;6.65;2.10;;;;;;;12.48;100.00;99638.72;5116430;28;20047;-79
2022/06/17 03:05:45;;;;;;;5.97;2.00;;;;;;;12.70;100.00;99645.13;5116316;28;20054;-78
2022/06/17 03:08:20;;;;;;;4.28;2.75;;;;;;;12.67;100.00;99641.94;5116887;28;20048;-79
2022/06/17 03:10:48;;;;;;;4.43;2.15;;;;;;;12.67;100.00;99636.50;5115210;28;20039;-79
2022/06/17 03:13:19;;;;;;;4.85;1.80;;;;;;;12.66;100.00;99651.16;5116259;28;20059;-79
2022/06/17 03:15:50;;;;;;;7.05;1.60;;;;;;;12.80;100.00;99644.03;5116416;28;20498;-79
2022/06/17 03:18:17;;;;;;;2.63;1.65;;;;;;;12.67;100.00;99648.22;5116387;28;20044;-79
2022/06/17 03:20:48;;;;;;;4.60;2.28;;;;;;;12.50;100.00;99627.63;5116369;28;20047;-79
2022/06/17 03:23:19;;;;;;;2.70;2.13;;;;;;;12.57;100.00;99651.25;5115799;28;20051;-79
2022/06/17 03:25:50;;;;;;;6.60;1.80;;;;;;;12.57;100.00;99651.25;5113754;28;20062;-79
2022/06/17 03:28:27;;;;;;;5.68;1.77;;;;;;;12.53;100.00;99654.53;5116139;28;20048;-79
2022/06/17 03:31:01;;;;;;;3.00;2.00;;;;;;;12.53;100.00;99652.66;5114879;28;20048;-79
2022/06/17 03:33:34;;;;;;;2.92;1.85;;;;;;;12.51;100.00;99664.75;5116066;27;20057;-79
2022/06/17 03:36:08;;;;;;;2.22;1.92;;;;;;;12.42;100.00;99665.88;5115968;28;20051;-79
2022/06/17 03:38:41;;;;;;;4.90;2.30;;;;;;;12.41;100.00;99667.75;5115312;28;20054;-79
2022/06/17 03:41:13;;;;;;;4.47;1.80;;;;;;;12.38;100.00;99666.25;5095769;28;20373;-79
2022/06/17 03:43:46;;;;;;;4.88;1.67;;;;;;;12.53;100.00;99662.72;5095083;28;20486;-79
2022/06/17 03:46:15;;;;;;;2.13;1.58;;;;;;;12.65;100.00;99669.41;5094701;28;20059;-79
2022/06/17 03:48:47;;;;;;;2.00;1.80;;;;;;;12.80;100.00;99679.50;5094636;28;20056;-79
2022/06/17 03:51:17;;;;;;;5.78;2.00;;;;;;;12.82;100.00;99681.00;5094670;28;20356;-79
2022/06/17 03:53:45;;;;;;;3.38;1.80;;;;;;;12.78;100.00;99681.56;5097994;28;20658;-79
2022/06/17 03:56:16;;;;;;;6.60;3.22;;;;;;;12.79;100.00;99692.28;5115231;28;20078;-79
2022/06/17 03:58:43;;;;;;;3.55;1.88;;;;;;;12.81;100.00;99690.22;5115257;28;20043;-79
2022/06/17 04:01:16;;;;;;;3.90;1.92;;;;;;;12.94;100.00;99703.22;5115330;28;20081;-80
2022/06/17 04:03:47;;;;;;;3.17;2.03;;;;;;;12.93;100.00;99693.31;5115041;28;20449;-79
2022/06/17 04:06:18;;;;;;;3.67;2.13;;;;;;;12.95;100.00;99704.91;5115264;28;20247;-79
2022/06/17 04:08:56;;;;;;;3.33;1.98;;;;;;;12.91;100.00;99693.50;5114030;28;20058;-79
2022/06/17 04:11:26;;;;;;;2.33;1.92;;;;;;;13.03;100.00;99702.06;5115162;28;20047;-80
2022/06/17 04:13:55;;;;;;;4.32;2.17;;;;;;;13.00;100.00;99697.00;5114437;27;20047;-80
2022/06/17 04:16:32;;;;;;;7.15;1.95;;;;;;;13.17;100.00;99708.59;5094936;28;20381;-79
2022/06/17 04:19:02;;;;;;;3.63;2.20;;;;;;;13.18;100.00;99704.81;5094874;28;20051;-79
2022/06/17 04:21:29;;;;;;;4.30;1.95;;;;;;;13.16;100.00;99708.75;5094895;28;20047;-79
2022/06/17 04:23:56;;;;;;;1.83;1.65;;;;;;;13.13;100.00;99706.41;5101108;28;20060;-79
2022/06/17 04:26:27;;;;;;;3.50;2.00;;;;;;;13.21;100.00;99711.78;5114992;28;20051;-79
2022/06/17 04:28:59;;;;;;;1.92;1.48;;;;;;;13.12;100.00;99711.03;5115379;28;20490;-79
2022/06/17 04:31:29;;;;;;;1.85;1.58;;;;;;;13.35;100.00;99721.88;5115152;28;20503;-78
2022/06/17 04:34:05;;;;;;;2.35;1.60;;;;;;;13.42;100.00;99691.94;5114622;28;20051;-79
2022/06/17 04:36:36;;;;;;;3.22;2.20;;;;;;;13.53;100.00;99721.47;5114802;28;20040;-79
2022/06/17 04:39:07;;;;;;;4.60;2.50;;;;;;;13.62;100.00;99716.75;5113269;28;20051;-79
2022/06/17 04:41:38;;;;;;;6.68;1.80;;;;;;;13.84;100.00;99720.38;5114760;28;20383;-79
2022/06/17 04:44:06;;;;;;;2.97;1.80;;;;;;;13.93;99.73;99730.16;5114785;28;20138;-79
2022/06/17 04:46:39;;;;;;;2.28;1.80;;;;;;;14.04;99.18;99736.16;5114563;28;20043;-79
2022/06/17 04:49:12;;;;;;;7.30;2.13;;;;;;;14.09;100.00;99731.81;5114967;28;20051;-79
2022/06/17 04:51:38;;;;;;;3.67;1.80;;;;;;;14.03;100.00;99729.00;5112351;28;20407;-79
2022/06/17 04:54:06;;;;;;;4.05;1.92;;;;;;;14.11;97.71;99724.25;5094008;28;20047;-79
2022/06/17 04:56:35;;;;;;;3.03;2.08;;;;;;;14.09;96.87;99739.16;5094147;28;20420;-79
2022/06/17 04:59:16;;;;;;;1.90;1.70;;;;;;;14.54;94.92;99726.13;5094230;28;20062;-79
2022/06/17 05:01:47;;;;;;;4.95;2.00;;;;;;;14.97;93.21;99723.34;5093904;28;20290;-79
2022/06/17 05:04:14;;;;;;;4.35;1.90;;;;;;;15.60;87.05;99727.94;5094040;28;20052;-79
2022/06/17 05:06:41;;;;;;;4.00;1.83;;;;;;;16.23;83.13;99735.13;5096425;28;20052;-79
2022/06/17 05:09:13;;;;;;;3.40;1.67;;;;;;;16.69;80.19;99736.22;5114243;28;20076;-79
2022/06/17 05:11:44;;;;;;;3.50;1.60;;;;;;;16.95;79.76;99736.25;5114265;28;20054;-79
2022/06/17 05:14:19;;;;;;;1.70;1.50;;;;;;;17.36;77.02;99744.41;5113841;27;20051;-79
2022/06/17 05:16:47;;;;;;;9.80;1.90;;;;;;;17.78;72.20;99755.91;5114207;28;20063;-79
2022/06/17 05:19:13;;;;;;;2.90;1.70;;;;;;;17.71;72.28;99761.44;5114277;28;20380;-79
2022/06/17 05:21:39;;;;;;;1.90;1.67;;;;;;;18.27;71.53;99748.06;5112616;28;20050;-80
2022/06/17 05:24:09;;;;;;;1.75;1.48;;;;;;;18.53;68.03;99752.56;5113803;28;20058;-80
2022/06/17 05:26:35;;;;;;;4.07;2.00;;;;;;;18.68;66.80;99746.72;5114172;28;20055;-79
2022/06/17 05:29:02;;;;;;;7.88;1.65;;;;;;;18.85;65.98;99738.75;5113766;28;20051;-79
2022/06/17 05:31:29;;;;;;;1.73;1.33;;;;;;;19.01;66.59;99749.22;5113838;28;20051;-79
2022/06/17 05:33:57;;;;;;;2.55;1.60;;;;;;;19.19;64.79;99742.91;5113854;28;20048;-79
2022/06/17 05:36:23;;;;;;;4.10;1.60;;;;;;;19.45;63.62;99749.19;5112570;28;20051;-79
2022/06/17 05:38:50;;;;;;;2.58;1.42;;;;;;;19.66;60.93;99750.69;5113541;28;20122;-79
2022/06/17 05:41:18;;;;;;;5.43;1.70;;;;;;;19.43;61.17;99748.59;5114153;28;20087;-79
2022/06/17 05:43:44;;;;;;;3.60;1.60;;;;;;;19.10;63.47;99752.53;5113250;28;20429;-79
2022/06/17 05:46:11;;;;;;;3.65;1.20;;;;;;;19.18;62.36;99768.78;5114046;28;20080;-79
2022/06/17 05:48:37;;;;;;;2.30;1.42;;;;;;;19.53;59.77;99759.94;5112995;27;20422;-79
2022/06/17 05:51:05;;;;;;;2.28;1.40;;;;;;;19.82;57.24;99760.28;5117990;28;20078;-79
2022/06/17 05:53:31;;;;;;;3.50;1.40;;;;;;;20.10;56.69;99756.94;5117555;28;20043;-79
2022/06/17 05:55:58;;;;;;;2.75;1.48;;;;;;;20.51;54.42;99763.56;5118103;28;20051;-79
2022/06/17 05:58:25;;;;;;;1.75;1.20;;;;;;;20.85;54.29;99761.16;5117864;28;20051;-79
2022/06/17 06:00:51;;;;;;;1.80;1.10;;;;;;;21.33;54.33;99750.13;5117886;28;20679;-80
2022/06/17 06:03:19;;;;;;;5.47;1.35;;;;;;;21.47;50.75;99765.38;5116662;28;20051;-80
2022/06/17 06:05:46;;;;;;;1.02;0.95;;;;;;;21.68;50.68;99763.94;5097154;28;20052;-80
2022/06/17 06:08:14;;;;;;;1.33;1.00;;;;;;;21.62;49.67;99764.91;5097242;28;20059;-80
2022/06/17 06:10:41;;;;;;;2.05;1.23;;;;;;;21.26;50.05;99763.22;5097370;28;20139;-80
2022/06/17 06:13:08;;;;;;;2.50;1.10;;;;;;;20.94;50.87;99769.94;5096914;28;20557;-79
2022/06/17 06:15:39;;;;;;;1.80;1.20;;;;;;;20.84;51.82;99755.88;5097155;28;20044;-79
2022/06/17 06:18:06;;;;;;;2.58;1.27;;;;;;;21.25;51.13;99765.16;5105964;27;20437;-79
2022/06/17 06:20:32;;;;;;;2.70;1.33;;;;;;;21.36;50.92;99756.03;5117347;28;20047;-79
2022/06/17 06:22:59;;;;;;;1.98;1.48;;;;;;;21.55;52.22;99755.91;5117060;28;20071;-79
2022/06/17 06:25:27;;;;;;;3.78;0.95;;;;;;;22.04;49.79;99761.06;5117330;28;20039;-79
2022/06/17 06:27:53;;;;;;;3.38;1.40;;;;;;;21.96;49.82;99750.38;5117657;28;20040;-80
2022/06/17 06:30:24;;;;;;;4.15;1.50;;;;;;;22.14;48.01;99752.97;5117457;28;20051;-80
2022/06/17 06:32:53;;;;;;;1.75;1.65;;;;;;;22.30;47.64;99756.88;5106523;28;20429;-79
2022/06/17 06:35:22;;;;;;;2.42;1.05;;;;;;;22.83;46.74;99753.97;5096539;28;20048;-80
2022/06/17 06:37:49;;;;;;;1.95;1.30;;;;;;;23.35;45.51;99734.28;5096425;28;20047;-80
2022/06/17 06:40:16;;;;;;;3.72;1.20;;;;;;;23.51;45.36;99743.66;5096169;28;20056;-80
2022/06/17 06:42:44;;;;;;;2.55;1.15;;;;;;;23.27;45.08;99740.25;5096432;28;20048;-79
2022/06/17 06:45:14;;;;;;;3.72;1.40;;;;;;;23.55;43.53;99749.56;5096834;28;20403;-80
2022/06/17 06:47:42;;;;;;;1.23;1.00;;;;;;;23.25;43.92;99728.59;5115323;27;20051;-80
2022/06/17 06:50:14;;;;;;;3.92;1.25;;;;;;;23.65;43.42;99736.66;5116834;28;20051;-80
2022/06/17 06:52:40;;;;;;;2.45;1.05;;;;;;;24.30;42.14;99749.91;5116665;28;20051;-80
2022/06/17 06:55:07;;;;;;;4.22;1.40;;;;;;;24.10;41.00;99745.81;5116881;28;20418;-79
2022/06/17 06:57:33;;;;;;;3.53;1.10;;;;;;;24.30;41.37;99748.00;5116831;28;20445;-80
2022/06/17 07:00:04;;;;;;;2.25;1.27;;;;;;;24.10;42.06;99747.75;5115455;27;20047;-79
2022/06/17 07:02:30;;;;;;;4.47;1.20;;;;;;;23.61;43.22;99757.69;5116627;28;20044;-81
2022/06/17 07:04:57;;;;;;;2.63;1.20;;;;;;;23.98;42.53;99747.88;5116793;28;20059;-81
2022/06/17 07:07:23;;;;;;;3.60;1.00;;;;;;;23.87;42.79;99754.44;5116802;28;20047;-80
2022/06/17 07:09:50;;;;;;;5.20;1.30;;;;;;;23.92;42.62;99743.38;5116779;28;20052;-80
2022/06/17 07:12:17;;;;;;;3.17;1.35;;;;;;;24.35;42.48;99730.53;5116333;28;20043;-81
2022/06/17 07:14:43;;;;;;;2.67;1.13;;;;;;;24.65;41.93;99759.75;5115533;28;20052;-80
2022/06/17 07:17:12;;;;;;;2.08;1.35;;;;;;;24.43;42.72;99745.88;5116481;28;20101;-80
2022/06/17 07:19:38;;;;;;;1.95;1.20;;;;;;;24.42;45.16;99770.06;5116341;28;20501;-80
2022/06/17 07:22:04;;;;;;;2.72;1.30;;;;;;;24.30;42.88;99767.44;5116327;28;20440;-80
2022/06/17 07:24:31;;;;;;;3.17;1.02;;;;;;;24.73;43.87;99768.47;5116316;28;20051;-80
2022/06/17 07:26:57;;;;;;;2.58;1.60;;;;;;;25.05;40.44;99745.38;5116030;28;20051;-80
2022/06/17 07:29:24;;;;;;;5.55;1.40;;;;;;;25.20;42.15;99766.03;5116161;27;20051;-80
2022/06/17 07:31:50;;;;;;;8.80;1.52;;;;;;;25.23;41.50;99774.72;5116099;28;20501;-80
2022/06/17 07:34:18;;;;;;;2.70;1.90;;;;;;;25.29;42.34;99770.00;5116041;28;20050;-80
2022/06/17 07:42:13;;;;;;;4.13;1.38;;;;;;;25.32;40.50;99771.44;5115235;27;20043;-80
2022/06/17 07:44:39;;;;;;;2.60;1.15;;;;;;;24.91;41.42;99750.53;5115741;28;20089;-80
2022/06/17 07:47:06;;;;;;;1.90;1.20;;;;;;;24.94;41.61;99771.41;5115907;28;20043;-80
2022/06/17 07:49:34;;;;;;;3.58;1.30;;;;;;;25.56;42.96;99778.28;5115661;28;20081;-80
2022/06/17 07:52:01;;;;;;;3.25;1.75;;;;;;;25.36;41.94;99775.38;5115476;28;20081;-80
2022/06/17 07:54:27;;;;;;;4.05;1.27;;;;;;;25.61;41.37;99771.91;5115401;28;20051;-80
2022/06/17 07:56:54;;;;;;;1.60;1.30;;;;;;;25.55;41.48;99776.59;5114426;27;20055;-80
2022/06/17 07:59:20;;;;;;;1.95;1.30;;;;;;;24.70;40.23;99762.56;5115577;28;20048;-80
2022/06/17 08:01:47;;;;;;;1.42;1.30;;;;;;;24.99;39.72;99759.47;5115585;28;20058;-79
2022/06/17 08:04:13;;;;;;;3.10;1.55;;;;;;;24.81;40.28;99775.47;5115303;28;20052;-80
2022/06/17 08:06:41;;;;;;;3.00;1.45;;;;;;;25.17;41.59;99761.88;5115408;28;20055;-80
2022/06/17 08:09:08;;;;;;;4.95;1.77;;;;;;;24.97;41.40;99765.31;5115648;28;20051;-79
2022/06/17 08:11:34;;;;;;;3.65;1.48;;;;;;;25.33;42.55;99771.16;5113187;28;20055;-79
2022/06/17 08:14:01;;;;;;;6.70;1.55;;;;;;;25.29;40.72;99767.22;5115216;28;20047;-79
2022/06/17 08:16:27;;;;;;;5.57;1.45;;;;;;;25.55;39.88;99778.56;5115151;28;20446;-79
2022/06/17 08:18:54;;;;;;;2.63;1.67;;;;;;;25.68;40.48;99768.88;5115065;28;20506;-79
2022/06/17 08:21:20;;;;;;;3.42;1.70;;;;;;;25.85;38.65;99774.25;5115151;28;20075;-79
2022/06/17 08:23:48;;;;;;;3.63;1.60;;;;;;;25.44;39.58;99774.84;5114885;28;20898;-79
2022/06/17 08:26:14;;;;;;;7.72;1.80;;;;;;;25.47;39.70;99785.44;5113915;28;20055;-79
2022/06/17 08:28:41;;;;;;;6.80;1.48;;;;;;;25.56;41.06;99783.00;5114805;28;20063;-79
2022/06/17 08:31:08;;;;;;;3.95;1.90;;;;;;;25.75;39.46;99773.09;5115152;28;20494;-79
2022/06/17 08:33:35;;;;;;;5.43;1.50;;;;;;;25.89;38.26;99767.84;5114480;28;20047;-80
2022/06/17 08:36:06;;;;;;;9.45;2.00;;;;;;;25.78;39.55;99777.28;5115335;28;20059;-79
2022/06/17 08:38:38;;;;;;;5.28;1.60;;;;;;;25.70;38.72;99766.66;5113024;27;20494;-79
2022/06/17 08:41:21;;;;;;;3.50;1.42;;;;;;;25.77;39.51;99767.25;5113956;28;20082;-79
2022/06/17 08:44:01;;;;;;;2.22;1.40;;;;;;;25.80;39.15;99775.06;5114652;28;20055;-79
2022/06/17 08:46:45;;;;;;;1.92;1.45;;;;;;;25.94;38.45;99765.09;5114652;28;20051;-79
2022/06/17 08:49:32;;;;;;;3.75;1.17;;;;;;;25.86;38.57;99753.66;5113407;28;20105;-79
2022/06/17 08:52:17;;;;;;;3.85;1.70;;;;;;;25.65;38.65;99766.63;5114661;28;20059;-80
2022/06/17 08:54:52;;;;;;;3.72;2.00;;;;;;;25.71;39.01;99771.94;5114934;27;20613;-79
2022/06/17 08:57:25;;;;;;;3.40;1.48;;;;;;;25.52;40.31;99779.94;5114356;28;20048;-79
2022/06/17 09:00:09;;;;;;;3.22;1.40;;;;;;;25.97;39.28;99770.13;5114679;28;20044;-79
2022/06/17 09:03:26;;;;;;;3.58;1.58;;;;;;;26.00;37.44;99756.78;5114087;28;20066;-80
2022/06/17 09:06:03;;;;;;;2.33;1.40;;;;;;;26.19;37.79;99768.28;5083236;28;20487;-79
2022/06/17 09:08:41;;;;;;;4.38;1.48;;;;;;;25.88;37.84;99752.28;5114088;28;20062;-79
2022/06/17 09:11:18;;;;;;;2.90;1.65;;;;;;;25.71;37.43;99748.84;5114375;28;20047;-79
2022/06/17 09:13:59;;;;;;;2.40;1.10;;;;;;;25.93;36.17;99748.66;5114140;28;20052;-79
2022/06/17 09:16:37;;;;;;;4.45;1.35;;;;;;;26.05;37.72;99752.09;5114270;28;20051;-80
2022/06/17 09:19:04;;;;;;;5.15;1.30;;;;;;;26.19;36.54;99757.97;5114130;28;20052;-80
2022/06/17 09:21:35;;;;;;;1.70;1.30;;;;;;;26.27;36.67;99762.16;5114174;28;20053;-79
2022/06/17 09:24:06;;;;;;;4.53;1.40;;;;;;;26.25;35.86;99759.66;5111733;28;20043;-79
2022/06/17 09:26:39;;;;;;;2.17;1.38;;;;;;;26.42;35.53;99755.78;5113911;28;20052;-80
2022/06/17 09:29:12;;;;;;;4.43;1.30;;;;;;;26.19;36.00;99757.97;5114038;28;20075;-78
2022/06/17 09:31:44;;;;;;;1.15;1.00;;;;;;;26.60;36.06;99757.22;5114034;28;20047;-79
2022/06/17 09:34:19;;;;;;;3.80;1.10;;;;;;;26.71;35.54;99746.94;5113724;28;20501;-79
2022/06/17 09:36:49;;;;;;;2.95;1.10;;;;;;;26.20;36.81;99745.72;5112517;28;20063;-79
2022/06/17 09:39:21;;;;;;;2.65;1.30;;;;;;;26.62;36.27;99763.38;5112909;28;20063;-80
2022/06/17 09:41:53;;;;;;;3.42;1.40;;;;;;;26.59;36.32;99770.34;5114008;28;20086;-80
2022/06/17 09:44:25;;;;;;;4.70;1.30;;;;;;;26.85;37.03;99773.19;5113599;28;20501;-80
2022/06/17 09:46:57;;;;;;;2.67;1.73;;;;;;;26.74;36.69;99752.81;5114245;28;20051;-80
2022/06/17 09:49:28;;;;;;;3.33;1.40;;;;;;;26.58;36.29;99749.13;5113850;28;20055;-81
2022/06/17 09:52:01;;;;;;;2.15;1.25;;;;;;;26.83;38.31;99769.84;5113865;28;20487;-80
2022/06/17 09:54:34;;;;;;;6.80;2.20;;;;;;;26.58;37.49;99751.91;5113789;28;20047;-80
2022/06/17 09:57:07;;;;;;;2.85;1.33;;;;;;;26.82;35.83;99768.97;5113615;28;20051;-80
2022/06/17 09:59:39;;;;;;;3.20;1.20;;;;;;;26.89;37.71;99748.34;5113069;28;20051;-80
2022/06/17 10:02:20;;;;;;;1.73;1.50;;;;;;;27.33;35.78;99759.78;5111551;28;20054;-80
2022/06/17 10:04:46;;;;;;;4.18;1.50;;;;;;;26.97;37.98;99739.44;5112918;28;20047;-80
2022/06/17 10:07:20;;;;;;;4.53;1.73;;;;;;;27.28;38.05;99751.41;5113363;28;20449;-80
2022/06/17 10:09:56;;;;;;;4.43;1.40;;;;;;;27.09;36.74;99716.81;5113330;28;20082;-80
2022/06/17 10:12:55;;;;;;;1.85;1.30;;;;;;;27.55;37.32;99730.69;5111450;28;20108;-80
2022/06/17 10:15:35;;;;;;;6.60;1.50;;;;;;;27.28;35.51;99726.28;5113345;28;20052;-80
2022/06/17 10:18:32;;;;;;;4.00;1.65;;;;;;;27.57;37.40;99728.47;5113435;28;20055;-81
2022/06/17 10:21:14;;;;;;;3.08;1.65;;;;;;;27.60;35.93;99719.50;5113442;28;20055;-80
2022/06/17 10:23:47;;;;;;;2.63;1.48;;;;;;;26.98;36.44;99738.31;5113173;28;20048;-79
2022/06/17 10:26:23;;;;;;;3.55;1.70;;;;;;;27.27;36.15;99724.59;5112105;28;20052;-80
2022/06/17 10:29:06;;;;;;;2.22;1.23;;;;;;;27.64;37.31;99720.63;5113393;28;20052;-80
2022/06/17 10:31:39;;;;;;;7.13;1.45;;;;;;;27.72;36.04;99717.22;5113382;28;20044;-80
2022/06/17 10:34:13;;;;;;;1.40;1.30;;;;;;;26.76;36.22;99742.22;5113108;28;20048;-81
2022/06/17 10:36:41;;;;;;;4.93;1.70;;;;;;;27.18;36.15;99732.69;5117083;28;20078;-80
2022/06/17 10:39:11;;;;;;;6.55;1.48;;;;;;;27.72;37.19;99731.19;5116528;28;20054;-80
2022/06/17 10:41:38;;;;;;;;;;;;;;;27.78;36.35;99733.97;5117186;27;20650;-80
2022/06/17 10:44:08;;;;;;;2.70;1.27;;;;;;;27.91;36.51;99727.75;5116972;28;19981;-81
2022/06/17 10:46:39;;;;;;;7.93;1.63;;;;;;;28.01;33.82;99729.69;5116948;28;20051;-80
2022/06/17 10:49:13;;;;;;;6.60;1.40;;;;;;;28.14;34.32;99731.00;5116874;28;20043;-80
2022/06/17 10:51:40;;;;;;;3.53;1.60;;;;;;;27.85;34.35;99709.34;5117004;28;20415;-80
2022/06/17 10:54:16;;;;;;;6.28;1.42;;;;;;;28.02;34.90;99723.81;5115262;28;20048;-80
2022/06/17 10:56:51;;;;;;;8.10;1.63;;;;;;;28.41;33.33;99737.00;5116759;28;20055;-81
2022/06/17 10:59:31;;;;;;;4.97;1.25;;;;;;;28.17;32.67;99734.09;5117073;28;20372;-80
2022/06/17 11:01:58;;;;;;;2.42;1.80;;;;;;;28.16;33.26;99717.59;5116741;28;20502;-80
2022/06/17 11:04:27;;;;;;;4.35;1.40;;;;;;;28.72;32.54;99716.41;5116451;27;20051;-81
2022/06/17 11:06:58;;;;;;;1.13;1.02;;;;;;;28.80;32.20;99731.72;5116945;28;20043;-80
2022/06/17 11:09:29;;;;;;;0.90;0.90;;;;;;;29.01;30.39;99723.97;5114306;27;20167;-80
2022/06/17 11:12:05;;;;;;;3.22;1.00;;;;;;;29.25;30.79;99726.84;5116699;28;20109;-80
2022/06/17 11:14:38;;;;;;;2.38;1.13;;;;;;;28.03;31.21;99714.34;5116423;28;20101;-80
2022/06/17 11:17:17;;;;;;;3.22;1.20;;;;;;;27.75;31.50;99721.41;5115689;28;20048;-80
2022/06/17 11:19:45;;;;;;;5.13;1.50;;;;;;;28.34;33.05;99718.91;5115420;27;20112;-80
2022/06/17 11:22:25;;;;;;;2.80;1.00;;;;;;;28.99;31.77;99724.28;5115957;28;20047;-80
2022/06/17 11:24:55;;;;;;;2.17;1.15;;;;;;;28.92;32.23;99724.63;5116475;28;20054;-80
2022/06/17 11:27:31;;;;;;;3.30;1.58;;;;;;;28.52;31.39;99721.00;5116043;27;20039;-80
2022/06/17 11:30:21;;;;;;;1.25;1.17;;;;;;;28.64;30.22;99722.63;5116190;28;20043;-80
2022/06/17 11:32:49;;;;;;;2.22;1.30;;;;;;;28.76;30.61;99728.69;5116019;28;20051;-79
2022/06/17 11:35:26;;;;;;;2.17;1.20;;;;;;;28.46;30.78;99722.16;5115827;28;20051;-80
2022/06/17 11:37:54;;;;;;;1.67;0.95;;;;;;;29.09;31.69;99715.78;5115972;28;20047;-81
2022/06/17 11:40:23;;;;;;;2.05;1.40;;;;;;;29.55;30.80;99710.84;5112079;28;20043;-81
2022/06/17 11:42:53;;;;;;;1.70;1.33;;;;;;;29.62;30.90;99705.72;5114749;28;20055;-80
2022/06/17 11:45:23;;;;;;;2.20;1.27;;;;;;;29.61;30.20;99701.25;5114445;27;20059;-80
2022/06/17 11:47:59;;;;;;;2.58;1.17;;;;;;;29.58;29.92;99699.88;5115185;28;20054;-81
2022/06/17 11:50:30;;;;;;;1.77;1.17;;;;;;;29.41;29.72;99682.72;5115327;28;20044;-80
2022/06/17 11:53:03;;;;;;;2.33;1.33;;;;;;;29.27;30.22;99689.03;5115023;28;20075;-80